Time;durP1;ratioP1;P1;durP2;ratioP2;P2;SDS_P1;SDS_P2;PMS_P1;PMS_P2;Temp;Humidity;BMP_temperature;BMP_pressure;BME280_temperature;BME280_humidity;BME280_pressure;Samples;Min_cycle;Max_cycle;Signal;HPM_P1;HPM_P2
2021/12/03 00:03:54;;;;;;;3.43;2.30;;;16.60;46.60;;;;;;10323801;28;20234;-64
2021/12/03 00:09:16;;;;;;;2.67;2.07;;;16.60;46.70;;;;;;10327371;28;20215;-64
2021/12/03 00:14:38;;;;;;;2.33;2.13;;;16.60;46.90;;;;;;10326716;28;20199;-65
2021/12/03 00:20:02;;;;;;;3.30;2.70;;;16.50;47.00;;;;;;10327479;28;20198;-65
2021/12/03 00:25:24;;;;;;;3.47;2.53;;;16.60;46.90;;;;;;10326838;28;20593;-64
2021/12/03 00:30:47;;;;;;;3.13;2.60;;;16.60;46.90;;;;;;10325717;28;20199;-65
2021/12/03 00:36:11;;;;;;;4.57;3.00;;;16.50;46.80;;;;;;10332284;28;20333;-64
2021/12/03 00:41:40;;;;;;;3.60;2.90;;;16.60;46.80;;;;;;10334701;28;20747;-65
2021/12/03 00:47:02;;;;;;;5.37;3.33;;;16.60;46.60;;;;;;10334934;28;20359;-65
2021/12/03 00:52:25;;;;;;;5.90;3.00;;;16.60;46.40;;;;;;10335242;28;20542;-65
2021/12/03 00:57:48;;;;;;;4.90;3.53;;;16.60;46.30;;;;;;10333753;28;20222;-65
2021/12/03 01:03:10;;;;;;;5.00;3.63;;;16.60;46.30;;;;;;10334122;28;20211;-65
2021/12/03 01:08:35;;;;;;;5.40;3.63;;;16.60;46.10;;;;;;10332965;28;20231;-64
2021/12/03 01:14:00;;;;;;;6.20;3.70;;;16.60;46.30;;;;;;10335096;28;20198;-64
2021/12/03 01:19:22;;;;;;;5.20;3.87;;;16.60;46.50;;;;;;10334877;28;20229;-65
2021/12/03 01:24:46;;;;;;;5.27;4.13;;;16.50;46.50;;;;;;10334270;28;20215;-65
2021/12/03 01:30:11;;;;;;;5.77;4.33;;;16.60;46.60;;;;;;10306031;28;20199;-64
2021/12/03 01:35:34;;;;;;;4.07;3.30;;;16.60;46.60;;;;;;10334033;28;20211;-64
2021/12/03 01:40:58;;;;;;;4.30;3.27;;;16.60;46.50;;;;;;10333858;28;20195;-64
2021/12/03 01:46:20;;;;;;;4.20;3.27;;;16.60;46.30;;;;;;10333342;28;20227;-64
2021/12/03 01:51:42;;;;;;;4.53;3.20;;;16.60;46.00;;;;;;10309670;28;20658;-65
2021/12/03 01:57:06;;;;;;;3.83;3.03;;;16.50;46.30;;;;;;10292747;28;20223;-64
2021/12/03 02:02:29;;;;;;;2.90;2.60;;;16.60;46.00;;;;;;10309765;28;20977;-64
2021/12/03 02:07:52;;;;;;;4.10;2.90;;;16.60;46.20;;;;;;10333225;28;20219;-64
2021/12/03 02:13:15;;;;;;;2.73;2.53;;;16.60;46.50;;;;;;10332472;28;20202;-64
2021/12/03 02:18:38;;;;;;;3.13;2.60;;;16.50;46.40;;;;;;10332503;28;20226;-64
2021/12/03 02:24:01;;;;;;;3.57;2.70;;;16.50;46.60;;;;;;10332357;28;20226;-64
2021/12/03 02:29:24;;;;;;;2.67;2.43;;;16.50;46.60;;;;;;10325518;28;20222;-65
2021/12/03 02:34:46;;;;;;;2.97;2.63;;;16.50;46.60;;;;;;10323421;28;20206;-64
2021/12/03 02:40:13;;;;;;;3.07;2.43;;;16.50;46.40;;;;;;10330908;28;20705;-65
2021/12/03 02:45:36;;;;;;;3.43;2.40;;;16.50;46.00;;;;;;10330328;28;20222;-64
2021/12/03 02:51:00;;;;;;;3.30;2.70;;;16.60;46.10;;;;;;10331717;28;20198;-64
2021/12/03 02:56:24;;;;;;;2.70;2.50;;;16.50;46.10;;;;;;10329193;28;20219;-64
2021/12/03 03:01:46;;;;;;;3.53;2.50;;;16.50;46.20;;;;;;10330978;28;20202;-64
2021/12/03 03:07:08;;;;;;;2.80;2.30;;;16.50;46.40;;;;;;10330953;28;20218;-64
2021/12/03 03:12:31;;;;;;;3.13;2.40;;;16.50;46.50;;;;;;10329628;28;20200;-65
2021/12/03 03:17:55;;;;;;;2.90;2.30;;;16.50;46.70;;;;;;10329426;28;20222;-64
2021/12/03 03:23:18;;;;;;;2.50;2.20;;;16.50;46.90;;;;;;10328992;28;20226;-65
2021/12/03 03:28:45;;;;;;;4.00;2.60;;;16.50;46.80;;;;;;10327871;28;20230;-64
2021/12/03 03:34:09;;;;;;;4.57;2.87;;;16.50;46.90;;;;;;10326251;28;20247;-64
2021/12/03 03:39:32;;;;;;;3.00;2.30;;;16.50;46.90;;;;;;10329539;28;20226;-63
2021/12/03 03:44:55;;;;;;;3.87;2.60;;;16.50;46.90;;;;;;10328339;28;20234;-64
2021/12/03 03:50:19;;;;;;;3.10;2.23;;;16.50;46.60;;;;;;10329615;28;20206;-65
2021/12/03 03:55:41;;;;;;;2.90;2.13;;;16.50;46.50;;;;;;10328003;28;20215;-65
2021/12/03 04:01:06;;;;;;;2.33;1.80;;;16.60;46.50;;;;;;10326123;28;20669;-65
2021/12/03 04:06:28;;;;;;;2.87;1.90;;;16.50;46.30;;;;;;10327688;28;20226;-65
2021/12/03 04:11:50;;;;;;;2.23;2.00;;;16.50;46.40;;;;;;10327130;28;20199;-64
2021/12/03 04:17:13;;;;;;;1.87;1.67;;;16.60;46.70;;;;;;10323627;28;20222;-64
2021/12/03 04:22:35;;;;;;;2.03;1.77;;;16.50;46.50;;;;;;10326704;28;20218;-64
2021/12/03 04:27:58;;;;;;;1.87;1.67;;;16.50;46.70;;;;;;10326910;28;20697;-65
2021/12/03 04:33:22;;;;;;;2.60;1.67;;;16.40;46.80;;;;;;10327625;28;20199;-64
2021/12/03 04:38:44;;;;;;;2.63;1.53;;;16.40;46.80;;;;;;10325643;28;20214;-64
2021/12/03 04:44:06;;;;;;;2.50;1.80;;;16.40;47.00;;;;;;10326617;28;20226;-64
2021/12/03 04:49:30;;;;;;;1.57;1.47;;;16.50;47.00;;;;;;10327208;28;20219;-65
2021/12/03 04:54:52;;;;;;;3.07;2.20;;;16.50;46.70;;;;;;10324714;28;20234;-63
2021/12/03 05:00:18;;;;;;;5.00;2.00;;;16.60;46.20;;;;;;10295730;28;20579;-64
2021/12/03 05:05:47;;;;;;;2.57;1.60;;;16.60;45.80;;;;;;10290993;28;20230;-64
2021/12/03 05:11:10;;;;;;;2.10;1.73;;;16.60;45.70;;;;;;10280372;28;20200;-64
2021/12/03 05:16:32;;;;;;;1.87;1.43;;;16.60;45.90;;;;;;10281436;28;20226;-64
2021/12/03 05:21:55;;;;;;;1.60;1.50;;;16.50;46.00;;;;;;10283376;28;20211;-64
2021/12/03 05:27:20;;;;;;;2.33;1.60;;;16.50;46.80;;;;;;10286992;28;20232;-64
2021/12/03 05:32:42;;;;;;;1.80;1.60;;;16.50;46.30;;;;;;10321868;28;20203;-64
2021/12/03 05:38:06;;;;;;;2.93;1.67;;;16.40;46.30;;;;;;10328045;28;20223;-64
2021/12/03 05:43:28;;;;;;;3.30;2.03;;;16.40;46.40;;;;;;10327811;28;20249;-64
2021/12/03 05:48:50;;;;;;;2.33;1.50;;;16.40;46.40;;;;;;10326127;28;20592;-64
2021/12/03 05:54:13;;;;;;;2.87;1.50;;;16.40;46.50;;;;;;10326484;28;20930;-65
2021/12/03 05:59:36;;;;;;;1.93;1.60;;;16.40;46.30;;;;;;10310894;28;20215;-65
2021/12/03 06:04:58;;;;;;;2.90;2.10;;;16.40;46.00;;;;;;10312014;28;20223;-65
2021/12/03 06:10:22;;;;;;;2.20;1.83;;;16.40;45.80;;;;;;10316103;28;20546;-65
2021/12/03 06:15:44;;;;;;;2.60;1.77;;;16.40;45.70;;;;;;10311132;28;20586;-65
2021/12/03 06:21:08;;;;;;;3.00;2.33;;;16.40;45.90;;;;;;10326438;28;20204;-65
2021/12/03 06:26:32;;;;;;;2.13;1.90;;;16.40;46.00;;;;;;10322854;28;20219;-65
2021/12/03 06:31:54;;;;;;;3.53;2.37;;;16.40;46.20;;;;;;10326586;28;20573;-63
2021/12/03 06:37:16;;;;;;;4.20;2.50;;;16.40;46.30;;;;;;10331059;28;20215;-62
2021/12/03 06:42:40;;;;;;;4.47;3.00;;;16.40;46.40;;;;;;10316974;28;20207;-64
2021/12/03 06:48:02;;;;;;;7.23;3.77;;;16.30;46.40;;;;;;10310276;28;20207;-63
2021/12/03 06:53:27;;;;;;;5.53;3.90;;;16.30;46.50;;;;;;10307864;28;20559;-63
2021/12/03 06:58:51;;;;;;;6.90;4.50;;;16.30;46.40;;;;;;10308086;28;20589;-66
2021/12/03 07:04:13;;;;;;;5.73;3.93;;;16.30;46.10;;;;;;10291583;28;20914;-63
2021/12/03 07:09:35;;;;;;;5.33;3.70;;;16.40;45.80;;;;;;10314135;28;20231;-61
2021/12/03 07:14:59;;;;;;;5.47;3.63;;;16.50;45.80;;;;;;10329968;28;20212;-62
2021/12/03 07:20:23;;;;;;;4.60;3.50;;;16.40;45.90;;;;;;10328115;28;20202;-63
2021/12/03 07:25:45;;;;;;;5.63;3.47;;;16.40;46.00;;;;;;10328888;28;20246;-63
2021/12/03 07:31:09;;;;;;;4.77;3.30;;;16.40;46.10;;;;;;10328526;28;20198;-64
2021/12/03 07:36:31;;;;;;;4.27;2.80;;;16.40;46.20;;;;;;10331970;23;20600;-62
2021/12/03 07:41:53;;;;;;;4.30;3.23;;;16.30;46.20;;;;;;10452204;28;20212;-63
2021/12/03 07:47:16;;;;;;;4.03;3.17;;;16.30;46.40;;;;;;10450254;28;20720;-63
2021/12/03 07:52:39;;;;;;;3.93;2.77;;;16.30;46.50;;;;;;10449788;28;20193;-64
2021/12/03 07:58:02;;;;;;;4.63;3.17;;;16.30;46.50;;;;;;10453353;28;20220;-63
2021/12/03 08:03:25;;;;;;;3.70;2.97;;;16.30;46.50;;;;;;10452028;28;20213;-63
2021/12/03 08:08:47;;;;;;;4.77;3.50;;;16.20;46.40;;;;;;10444223;28;20225;-66
2021/12/03 08:14:09;;;;;;;4.63;3.67;;;16.30;46.10;;;;;;10451067;28;20193;-66
2021/12/03 08:19:33;;;;;;;4.67;3.40;;;16.40;45.90;;;;;;10411620;28;20210;-67
2021/12/03 08:24:55;;;;;;;6.80;3.90;;;16.40;45.90;;;;;;10413205;28;20232;-65
2021/12/03 08:30:17;;;;;;;5.93;3.73;;;16.40;46.10;;;;;;10439950;28;20213;-64
2021/12/03 08:35:41;;;;;;;6.10;4.00;;;16.30;46.30;;;;;;10450172;28;20204;-64
2021/12/03 08:41:04;;;;;;;7.83;4.97;;;16.30;46.40;;;;;;10452147;28;20203;-64
2021/12/03 08:46:29;;;;;;;6.80;4.90;;;16.30;46.60;;;;;;10450006;28;20221;-64
2021/12/03 08:52:10;;;;;;;8.43;5.83;;;16.30;46.80;;;;;;10445105;28;20197;-67
2021/12/03 08:57:34;;;;;;;6.73;4.67;;;16.30;46.90;;;;;;10415236;28;20213;-64
2021/12/03 09:02:57;;;;;;;7.67;5.10;;;16.20;47.00;;;;;;10419153;28;20197;-66
2021/12/03 09:08:20;;;;;;;7.53;5.67;;;16.20;46.80;;;;;;10446841;28;20248;-66
2021/12/03 09:13:43;;;;;;;9.27;6.13;;;16.30;46.60;;;;;;10415471;28;20190;-65
2021/12/03 09:19:13;;;;;;;8.10;5.87;;;16.30;46.30;;;;;;10415823;28;20216;-65
2021/12/03 09:24:38;;;;;;;7.10;5.63;;;16.40;46.30;;;;;;10416489;28;20261;-64
2021/12/03 09:30:02;;;;;;;8.53;5.90;;;16.30;46.60;;;;;;10423299;28;20688;-63
2021/12/03 09:35:26;;;;;;;11.33;6.90;;;16.30;46.90;;;;;;10452405;28;20244;-64
2021/12/03 09:40:50;;;;;;;9.83;5.93;;;16.30;46.90;;;;;;10426311;28;20201;-62
2021/12/03 09:46:16;;;;;;;8.13;5.47;;;16.30;47.20;;;;;;10436471;28;20214;-64
2021/12/03 09:51:45;;;;;;;6.80;5.07;;;16.30;47.30;;;;;;10376807;28;20277;-63
2021/12/03 09:57:12;;;;;;;7.83;6.10;;;16.30;47.50;;;;;;10413308;28;20209;-63
2021/12/03 10:02:55;;;;;;;7.33;6.20;;;16.30;47.60;;;;;;10414354;28;20561;-63
2021/12/03 10:14:20;;;;;;;7.27;5.70;;;16.30;47.10;;;;;;10374962;28;20187;-62
2021/12/03 10:19:51;;;;;;;7.53;6.00;;;16.50;46.70;;;;;;10372730;28;20210;-61
2021/12/03 10:25:32;;;;;;;7.93;6.03;;;16.50;46.40;;;;;;10402382;28;20585;-63
2021/12/03 10:31:30;;;;;;;8.40;6.03;;;16.60;46.60;;;;;;10435125;28;20228;-63
2021/12/03 10:48:27;;;;;;;9.53;6.13;;;16.40;47.40;;;;;;10431174;28;20225;-63
2021/12/03 10:53:57;;;;;;;7.40;5.30;;;16.40;47.50;;;;;;10442651;28;20560;-63
2021/12/03 12:09:42;;;;;;;10.53;5.90;;;16.40;47.50;;;;;;10376803;28;20213;-63
2021/12/03 14:10:03;;;;;;;8.70;3.53;;;16.40;47.50;;;;;;10403630;28;20225;-66
2021/12/03 14:38:47;;;;;;;8.67;3.97;;;16.40;48.10;;;;;;10353466;28;20439;-63
2021/12/03 14:44:17;;;;;;;8.52;3.97;;;17.10;46.70;;;;;;10411489;28;20418;-64
2021/12/03 14:50:11;;;;;;;6.47;3.37;;;17.70;44.50;;;;;;10394787;23;20226;-64
2021/12/03 14:55:33;;;;;;;8.33;3.40;;;17.20;46.50;;;;;;10340398;28;20211;-63
2021/12/03 15:00:58;;;;;;;4.87;2.97;;;17.00;46.60;;;;;;10340454;28;20199;-66
2021/12/03 15:06:34;;;;;;;4.80;2.83;;;17.00;47.10;;;;;;10344662;28;20226;-64
2021/12/03 15:12:18;;;;;;;6.00;2.53;;;17.00;47.30;;;;;;10365716;28;20205;-62
2021/12/03 15:35:03;;;;;;;5.20;2.60;;;16.80;48.30;;;;;;10324475;28;20232;-67
2021/12/03 16:15:01;;;;;;;7.00;2.63;;;16.90;47.90;;;;;;10334738;28;20507;-64
2021/12/03 16:20:43;;;;;;;4.63;1.77;;;17.40;46.70;;;;;;10327301;28;20244;-66
2021/12/03 16:26:18;;;;;;;5.00;1.80;;;17.10;47.60;;;;;;10326594;28;20298;-65
2021/12/03 16:54:35;;;;;;;4.93;1.73;;;16.60;49.20;;;;;;10331738;28;20290;-65
2021/12/03 17:00:00;;;;;;;4.93;2.23;;;16.60;49.40;;;;;;10341932;28;20288;-65
2021/12/03 17:05:50;;;;;;;4.67;1.77;;;16.50;49.50;;;;;;10339756;28;20230;-65
2021/12/03 17:56:44;;;;;;;2.73;1.60;;;16.50;49.50;;;;;;10354691;28;20214;-65
2021/12/03 18:02:14;;;;;;;3.07;1.93;;;16.60;49.60;;;;;;10355020;28;20198;-66
2021/12/03 18:07:46;;;;;;;3.43;1.90;;;16.50;49.70;;;;;;10354938;28;20301;-67
2021/12/03 18:19:18;;;;;;;3.47;1.93;;;16.60;49.60;;;;;;10348773;28;20584;-65
2021/12/03 18:47:45;;;;;;;3.27;1.53;;;16.90;49.00;;;;;;10331035;28;20478;-66
2021/12/03 18:53:28;;;;;;;3.70;1.77;;;16.80;49.50;;;;;;10334865;28;20197;-65
2021/12/03 18:58:54;;;;;;;3.00;1.60;;;16.70;50.10;;;;;;10373029;28;20214;-65
2021/12/03 19:04:21;;;;;;;2.37;1.50;;;16.60;50.20;;;;;;10350306;28;20293;-66
2021/12/03 19:09:46;;;;;;;2.83;1.40;;;16.60;50.40;;;;;;10359254;28;20596;-66
2021/12/03 19:15:10;;;;;;;2.33;1.50;;;16.60;50.30;;;;;;10363815;28;20720;-65
2021/12/03 19:20:37;;;;;;;2.57;1.40;;;16.60;50.40;;;;;;10365271;28;20648;-65
2021/12/03 19:26:00;;;;;;;2.47;1.40;;;16.60;50.20;;;;;;10364628;28;20297;-65
2021/12/03 19:31:24;;;;;;;1.70;1.30;;;16.60;50.00;;;;;;10354092;28;20196;-65
2021/12/03 19:36:48;;;;;;;2.37;1.53;;;16.70;49.60;;;;;;10338882;28;20214;-65
2021/12/03 19:42:13;;;;;;;3.63;1.30;;;16.70;49.70;;;;;;10364330;28;20653;-65
2021/12/03 19:47:46;;;;;;;1.70;1.27;;;16.70;49.80;;;;;;10322884;28;20259;-65
2021/12/03 19:53:13;;;;;;;2.10;1.33;;;16.60;49.80;;;;;;10323040;28;20203;-65
2021/12/03 19:58:35;;;;;;;1.33;1.20;;;16.60;49.90;;;;;;10334096;28;20417;-65
2021/12/03 20:03:57;;;;;;;1.93;1.23;;;16.50;49.90;;;;;;10354277;28;20232;-65
2021/12/03 20:09:23;;;;;;;1.30;1.03;;;16.50;50.00;;;;;;10350248;28;20233;-66
2021/12/03 20:14:48;;;;;;;2.83;1.37;;;16.50;50.20;;;;;;10354110;28;20214;-65
2021/12/03 20:20:12;;;;;;;2.43;1.27;;;16.50;50.20;;;;;;10352708;28;20634;-65
2021/12/03 20:31:13;;;;;;;1.47;1.33;;;16.50;49.80;;;;;;10355252;28;20672;-65
2021/12/03 20:36:44;;;;;;;3.87;1.40;;;16.60;49.70;;;;;;10350536;28;20222;-65
2021/12/03 20:42:14;;;;;;;2.20;1.30;;;16.60;49.70;;;;;;10360204;28;20195;-65
2021/12/03 20:53:29;;;;;;;1.83;1.40;;;16.60;49.80;;;;;;10361116;28;20187;-66
2021/12/03 21:10:25;;;;;;;2.80;1.60;;;16.40;50.20;;;;;;10324825;28;20216;-65
2021/12/03 21:16:05;;;;;;;5.17;2.47;;;16.40;50.20;;;;;;10365858;28;20245;-66
2021/12/03 21:21:31;;;;;;;6.47;2.90;;;16.40;50.30;;;;;;10365735;28;20229;-65
2021/12/03 21:26:54;;;;;;;3.70;2.43;;;16.50;50.00;;;;;;10365937;28;20225;-66
2021/12/03 21:32:23;;;;;;;5.73;2.80;;;16.60;49.50;;;;;;10367222;28;20672;-65
2021/12/03 21:38:09;;;;;;;5.13;2.77;;;16.60;49.20;;;;;;10366121;28;20338;-65
2021/12/03 21:43:32;;;;;;;5.50;2.87;;;16.60;49.20;;;;;;10364213;28;20203;-66
2021/12/03 21:48:56;;;;;;;2.63;1.97;;;16.60;49.40;;;;;;10372687;28;20226;-65
2021/12/03 21:54:20;;;;;;;3.83;2.13;;;16.50;49.60;;;;;;10372733;28;20198;-65
2021/12/03 21:59:42;;;;;;;3.07;2.00;;;16.40;49.80;;;;;;10373247;28;20218;-66
2021/12/03 22:05:06;;;;;;;2.47;1.90;;;16.40;50.10;;;;;;10372010;28;20214;-65
2021/12/03 22:10:28;;;;;;;3.00;1.90;;;16.40;50.20;;;;;;10349585;28;20203;-67
2021/12/03 22:15:51;;;;;;;2.47;1.67;;;16.30;50.20;;;;;;10332860;28;20222;-67
2021/12/03 22:21:16;;;;;;;3.10;2.20;;;16.30;50.30;;;;;;10331599;28;20257;-67
2021/12/03 22:26:38;;;;;;;2.90;2.03;;;16.30;50.40;;;;;;10331509;28;20219;-67
2021/12/03 22:32:02;;;;;;;2.77;2.07;;;16.30;50.40;;;;;;10335439;28;20203;-65
2021/12/03 22:37:25;;;;;;;2.50;1.83;;;16.30;50.30;;;;;;10331345;28;20219;-65
2021/12/03 22:42:48;;;;;;;3.47;2.00;;;16.40;50.20;;;;;;10331072;28;20205;-65
2021/12/03 22:48:23;;;;;;;2.63;1.77;;;16.40;50.00;;;;;;10330588;28;20696;-66
2021/12/03 22:53:47;;;;;;;1.90;1.70;;;16.40;49.90;;;;;;10335233;28;20203;-65
2021/12/03 22:59:10;;;;;;;2.60;1.50;;;16.50;49.80;;;;;;10330768;28;20616;-66
2021/12/03 23:04:33;;;;;;;1.93;1.57;;;16.40;49.90;;;;;;10330883;28;20840;-66
2021/12/03 23:09:57;;;;;;;2.73;1.50;;;16.40;50.10;;;;;;10357812;28;20232;-65
2021/12/03 23:15:19;;;;;;;1.60;1.50;;;16.40;50.20;;;;;;10369052;28;20306;-65
2021/12/03 23:20:42;;;;;;;2.67;1.70;;;16.40;50.40;;;;;;10361843;28;20230;-65
2021/12/03 23:26:07;;;;;;;1.70;1.27;;;16.30;50.40;;;;;;10370311;28;20225;-66
2021/12/03 23:31:30;;;;;;;2.60;1.80;;;16.30;50.40;;;;;;10369986;28;20198;-65
2021/12/03 23:36:55;;;;;;;1.53;1.20;;;16.30;50.60;;;;;;10369571;28;20221;-65
2021/12/03 23:42:18;;;;;;;2.00;1.43;;;16.20;50.50;;;;;;10369029;28;20191;-65
2021/12/03 23:47:40;;;;;;;2.17;1.60;;;16.30;50.50;;;;;;10369451;28;20249;-65
2021/12/03 23:53:03;;;;;;;1.50;1.37;;;16.30;50.30;;;;;;10369239;28;20218;-65
2021/12/03 23:58:26;;;;;;;1.57;1.30;;;16.40;50.30;;;;;;10369337;28;20219;-65
